Time,TemperatureF,DewpointF,PressureIn,WindDirection,WindDirectionDegrees,WindSpeedMPH,WindSpeedGustMPH,Humidity,HourlyPrecipIn,Conditions,Clouds,dailyrainin,SoftwareType,DateUTC
2013-05-14 00:03:00,48.9,32.0,30.09,South,172,2.0,4.0,53,0.00,,,0.00,weatherlink.com 1.10,2013-05-14 04:03:00,
2013-05-14 00:18:00,49.0,32.0,30.08,South,172,1.0,4.0,53,0.00,,,0.00,weatherlink.com 1.10,2013-05-14 04:18:00,
2013-05-14 00:33:00,49.3,32.0,30.08,South,172,2.0,4.0,51,0.00,,,0.00,weatherlink.com 1.10,2013-05-14 04:33:00,
2013-05-14 00:48:00,49.3,33.0,30.08,South,172,3.0,6.0,54,0.00,,,0.00,weatherlink.com 1.10,2013-05-14 04:48:00,
2013-05-14 01:03:00,49.4,33.0,30.08,South,170,4.0,7.0,53,0.00,,,0.00,weatherlink.com 1.10,2013-05-14 05:03:00,
2013-05-14 01:18:00,49.5,33.0,30.07,SSE,159,4.0,8.0,54,0.00,,,0.00,weatherlink.com 1.10,2013-05-14 05:18:00,
2013-05-14 01:33:00,49.4,33.0,30.06,SSE,165,4.0,6.0,53,0.00,,,0.00,weatherlink.com 1.10,2013-05-14 05:33:00,
2013-05-14 01:49:00,49.5,33.0,30.07,SSE,156,5.0,8.0,54,0.00,,,0.00,weatherlink.com 1.10,2013-05-14 05:49:00,
2013-05-14 02:04:00,49.6,33.0,30.06,South,180,2.0,9.0,53,0.00,,,0.00,weatherlink.com 1.10,2013-05-14 06:04:00,
2013-05-14 02:19:00,49.4,33.0,30.06,SSE,164,2.0,7.0,53,0.00,,,0.00,weatherlink.com 1.10,2013-05-14 06:19:00,
2013-05-14 02:34:00,49.5,33.0,30.05,South,169,3.0,6.0,53,0.00,,,0.00,weatherlink.com 1.10,2013-05-14 06:34:00,
2013-05-14 02:49:00,49.5,33.0,30.05,SSE,161,0.0,8.0,54,0.00,,,0.00,weatherlink.com 1.10,2013-05-14 06:49:00,
2013-05-14 03:04:00,49.6,34.0,30.04,SSE,157,8.0,8.0,55,0.00,,,0.00,weatherlink.com 1.10,2013-05-14 07:04:00,
2013-05-14 03:19:00,49.6,33.0,30.03,SSE,158,2.0,6.0,54,0.00,,,0.00,weatherlink.com 1.10,2013-05-14 07:19:00,
2013-05-14 03:34:00,49.7,35.0,30.02,South,171,3.0,7.0,57,0.00,,,0.00,weatherlink.com 1.10,2013-05-14 07:34:00,
2013-05-14 03:49:00,49.5,34.0,30.00,SSE,163,3.0,7.0,56,0.00,,,0.00,weatherlink.com 1.10,2013-05-14 07:49:00,
2013-05-14 04:04:00,49.1,34.0,30.00,SSE,154,3.0,7.0,57,0.00,,,0.00,weatherlink.com 1.10,2013-05-14 08:04:00,
2013-05-14 04:19:00,48.8,35.0,30.00,SSE,157,4.0,7.0,60,0.00,,,0.00,weatherlink.com 1.10,2013-05-14 08:19:00,
2013-05-14 04:34:00,48.5,35.0,30.00,SSE,162,4.0,6.0,60,0.00,,,0.00,weatherlink.com 1.10,2013-05-14 08:34:00,
2013-05-14 04:49:00,48.9,35.0,30.00,SSE,149,1.0,5.0,60,0.00,,,0.00,weatherlink.com 1.10,2013-05-14 08:49:00,
2013-05-14 05:04:00,49.0,35.0,30.00,SSE,163,2.0,4.0,60,0.00,,,0.00,weatherlink.com 1.10,2013-05-14 09:04:00,
2013-05-14 05:19:00,49.2,37.0,30.00,SSE,148,4.0,4.0,64,0.00,,,0.00,weatherlink.com 1.10,2013-05-14 09:19:00,
2013-05-14 05:34:00,49.5,37.0,29.99,SSE,153,3.0,4.0,63,0.00,,,0.00,weatherlink.com 1.10,2013-05-14 09:34:00,
2013-05-14 05:49:00,49.6,37.0,29.99,SE,138,2.0,6.0,63,0.00,,,0.00,weatherlink.com 1.10,2013-05-14 09:49:00,
2013-05-14 06:04:00,49.6,38.0,29.99,SSE,162,2.0,6.0,64,0.00,,,0.00,weatherlink.com 1.10,2013-05-14 10:04:00,
2013-05-14 06:19:00,49.9,38.0,29.98,SSE,160,3.0,7.0,65,0.00,,,0.00,weatherlink.com 1.10,2013-05-14 10:19:00,
2013-05-14 06:34:00,50.0,39.0,29.98,SSE,163,2.0,7.0,66,0.00,,,0.00,weatherlink.com 1.10,2013-05-14 10:34:00,
2013-05-14 06:49:00,50.3,40.0,29.98,SSE,161,5.0,8.0,67,0.00,,,0.00,weatherlink.com 1.10,2013-05-14 10:49:00,
2013-05-14 07:04:00,50.5,40.0,29.98,SSE,161,2.0,8.0,67,0.00,,,0.00,weatherlink.com 1.10,2013-05-14 11:04:00,
2013-05-14 07:19:00,51.0,40.0,29.98,SSE,165,6.0,8.0,67,0.00,,,0.00,weatherlink.com 1.10,2013-05-14 11:19:00,
2013-05-14 07:34:00,51.1,41.0,29.97,SSE,166,2.0,8.0,68,0.00,,,0.00,weatherlink.com 1.10,2013-05-14 11:34:00,
2013-05-14 07:49:00,51.9,42.0,29.97,SSE,155,5.0,8.0,68,0.00,,,0.00,weatherlink.com 1.10,2013-05-14 11:49:00,
2013-05-14 08:04:00,52.4,42.0,29.97,SSE,159,2.0,8.0,67,0.00,,,0.00,weatherlink.com 1.10,2013-05-14 12:04:00,
2013-05-14 08:19:00,54.2,43.0,29.96,South,175,8.0,9.0,65,0.00,,,0.00,weatherlink.com 1.10,2013-05-14 12:19:00,
2013-05-14 08:34:00,55.1,42.0,29.95,SSE,161,7.0,12.0,62,0.00,,,0.00,weatherlink.com 1.10,2013-05-14 12:34:00,
2013-05-14 08:49:00,56.8,42.0,29.94,SSE,154,7.0,15.0,58,0.00,,,0.00,weatherlink.com 1.10,2013-05-14 12:49:00,
2013-05-14 09:04:00,58.3,43.0,29.92,South,178,7.0,15.0,57,0.00,,,0.00,weatherlink.com 1.10,2013-05-14 13:04:00,
2013-05-14 09:20:00,59.4,43.0,29.92,South,176,7.0,17.0,54,0.00,,,0.00,weatherlink.com 1.10,2013-05-14 13:20:00,
2013-05-14 09:35:00,60.0,42.0,29.91,SSW,200,5.0,20.0,52,0.00,,,0.00,weatherlink.com 1.10,2013-05-14 13:35:00,
2013-05-14 09:50:00,61.1,42.0,29.90,South,190,12.0,16.0,50,0.00,,,0.00,weatherlink.com 1.10,2013-05-14 13:50:00,
2013-05-14 10:05:00,61.5,43.0,29.88,South,179,10.0,19.0,50,0.00,,,0.00,weatherlink.com 1.10,2013-05-14 14:05:00,
2013-05-14 10:20:00,62.3,44.0,29.88,SSW,196,5.0,17.0,51,0.00,,,0.00,weatherlink.com 1.10,2013-05-14 14:20:00,
2013-05-14 10:35:00,64.4,45.0,29.87,SW,226,4.0,18.0,49,0.00,,,0.00,weatherlink.com 1.10,2013-05-14 14:35:00,
2013-05-14 10:50:00,63.8,45.0,29.86,SE,144,6.0,18.0,50,0.00,,,0.00,weatherlink.com 1.10,2013-05-14 14:50:00,
2013-05-14 11:05:00,64.8,47.0,29.85,South,183,7.0,13.0,52,0.00,,,0.00,weatherlink.com 1.10,2013-05-14 15:05:00,
2013-05-14 11:20:00,66.4,48.0,29.84,South,188,6.0,20.0,52,0.00,,,0.00,weatherlink.com 1.10,2013-05-14 15:20:00,
2013-05-14 11:35:00,66.7,48.0,29.84,SSE,150,7.0,23.0,52,0.00,,,0.00,weatherlink.com 1.10,2013-05-14 15:35:00,
2013-05-14 11:50:00,68.6,50.0,29.84,SSE,150,4.0,12.0,51,0.00,,,0.00,weatherlink.com 1.10,2013-05-14 15:50:00,
2013-05-14 12:05:00,68.5,49.0,29.83,SE,140,9.0,16.0,50,0.00,,,0.00,weatherlink.com 1.10,2013-05-14 16:05:00,
2013-05-14 12:20:00,69.1,52.0,29.82,South,188,6.0,14.0,54,0.00,,,0.00,weatherlink.com 1.10,2013-05-14 16:20:00,
2013-05-14 12:50:00,70.7,52.0,29.80,South,180,3.0,17.0,51,0.00,,,0.00,weatherlink.com 1.10,2013-05-14 16:50:00,
2013-05-14 13:05:00,71.5,52.0,29.80,SSE,157,7.0,16.0,51,0.00,,,0.00,weatherlink.com 1.10,2013-05-14 17:05:00,
2013-05-14 13:20:00,72.1,53.0,29.79,SSE,156,5.0,12.0,52,0.00,,,0.00,weatherlink.com 1.10,2013-05-14 17:20:00,
2013-05-14 13:35:00,73.7,55.0,29.79,SW,216,2.0,18.0,52,0.00,,,0.00,weatherlink.com 1.10,2013-05-14 17:35:00,
2013-05-14 13:50:00,74.8,54.0,29.80,SSE,161,6.0,15.0,49,0.00,,,0.00,weatherlink.com 1.10,2013-05-14 17:50:00,
2013-05-14 14:05:00,75.8,55.0,29.79,SSE,147,2.0,11.0,49,0.00,,,0.00,weatherlink.com 1.10,2013-05-14 18:05:00,
2013-05-14 14:20:00,77.1,55.0,29.77,WNW,298,4.0,11.0,47,0.00,,,0.00,weatherlink.com 1.10,2013-05-14 18:20:00,
2013-05-14 14:36:00,77.6,58.0,29.77,SW,223,6.0,12.0,51,0.00,,,0.00,weatherlink.com 1.10,2013-05-14 18:36:00,
2013-05-14 14:51:00,78.4,57.0,29.76,South,178,5.0,12.0,48,0.00,,,0.00,weatherlink.com 1.10,2013-05-14 18:51:00,
2013-05-14 15:06:00,78.8,57.0,29.76,WSW,255,2.0,13.0,48,0.00,,,0.00,weatherlink.com 1.10,2013-05-14 19:06:00,
2013-05-14 15:21:00,79.7,58.0,29.75,SW,227,0.0,10.0,47,0.00,,,0.00,weatherlink.com 1.10,2013-05-14 19:21:00,
2013-05-14 15:36:00,80.6,58.0,29.75,NW,312,6.0,8.0,47,0.00,,,0.00,weatherlink.com 1.10,2013-05-14 19:36:00,
2013-05-14 15:51:00,81.2,60.0,29.74,WSW,248,1.0,10.0,48,0.00,,,0.00,weatherlink.com 1.10,2013-05-14 19:51:00,
2013-05-14 16:06:00,81.0,59.0,29.74,NNW,333,2.0,12.0,47,0.00,,,0.00,weatherlink.com 1.10,2013-05-14 20:06:00,
2013-05-14 16:21:00,81.7,58.0,29.74,SSW,198,3.0,13.0,45,0.00,,,0.00,weatherlink.com 1.10,2013-05-14 20:21:00,
2013-05-14 16:36:00,82.8,61.0,29.74,NE,55,4.0,8.0,47,0.00,,,0.00,weatherlink.com 1.10,2013-05-14 20:36:00,
2013-05-14 16:51:00,83.0,60.0,29.74,WNW,298,3.0,8.0,46,0.00,,,0.00,weatherlink.com 1.10,2013-05-14 20:51:00,
2013-05-14 17:06:00,83.6,61.0,29.74,South,173,2.0,12.0,47,0.00,,,0.00,weatherlink.com 1.10,2013-05-14 21:06:00,
2013-05-14 17:21:00,83.9,61.0,29.73,NNE,28,2.0,10.0,46,0.00,,,0.00,weatherlink.com 1.10,2013-05-14 21:21:00,
2013-05-14 17:36:00,84.3,58.0,29.73,WNW,284,4.0,9.0,41,0.00,,,0.00,weatherlink.com 1.10,2013-05-14 21:36:00,
2013-05-14 18:06:00,85.2,60.0,29.74,SSW,194,2.0,7.0,42,0.00,,,0.00,weatherlink.com 1.10,2013-05-14 22:06:00,
2013-05-14 18:21:00,85.0,54.0,29.74,NW,310,13.0,15.0,35,0.00,,,0.00,weatherlink.com 1.10,2013-05-14 22:21:00,
2013-05-14 18:36:00,84.8,53.0,29.74,NW,317,10.0,20.0,34,0.00,,,0.00,weatherlink.com 1.10,2013-05-14 22:36:00,
2013-05-14 18:51:00,84.2,52.0,29.75,WNW,301,9.0,17.0,33,0.00,,,0.00,weatherlink.com 1.10,2013-05-14 22:51:00,
2013-05-14 19:06:00,83.7,51.0,29.74,WNW,298,6.0,15.0,32,0.00,,,0.00,weatherlink.com 1.10,2013-05-14 23:06:00,
2013-05-14 19:21:00,82.3,53.0,29.74,NW,306,4.0,12.0,36,0.00,,,0.00,weatherlink.com 1.10,2013-05-14 23:21:00,
2013-05-14 19:36:00,81.1,52.0,29.72,WSW,258,0.0,3.0,37,0.00,,,0.00,weatherlink.com 1.10,2013-05-14 23:36:00,
2013-05-14 19:51:00,80.5,54.0,29.71,WSW,258,0.0,3.0,40,0.00,,,0.00,weatherlink.com 1.10,2013-05-14 23:51:00,
2013-05-14 20:06:00,79.4,52.0,29.71,WSW,255,0.0,3.0,39,0.00,,,0.00,weatherlink.com 1.10,2013-05-15 00:06:00,
2013-05-14 20:21:00,78.7,52.0,29.68,SSW,198,1.0,4.0,39,0.00,,,0.00,weatherlink.com 1.10,2013-05-15 00:21:00,
2013-05-14 20:36:00,78.1,50.0,29.68,SSW,199,0.0,3.0,38,0.00,,,0.00,weatherlink.com 1.10,2013-05-15 00:36:00,
2013-05-14 20:51:00,77.4,51.0,29.69,SSW,199,0.0,2.0,40,0.00,,,0.00,weatherlink.com 1.10,2013-05-15 00:51:00,
2013-05-14 21:06:00,76.2,51.0,29.71,SSW,198,0.0,0.0,41,0.00,,,0.00,weatherlink.com 1.10,2013-05-15 01:06:00,
2013-05-14 21:21:00,74.8,52.0,29.71,SSW,198,0.0,1.0,45,0.00,,,0.00,weatherlink.com 1.10,2013-05-15 01:21:00,
2013-05-14 21:36:00,70.5,53.0,29.72,East,94,1.0,5.0,55,0.00,,,0.00,weatherlink.com 1.10,2013-05-15 01:36:00,
2013-05-14 21:51:00,68.5,52.0,29.71,SSW,198,2.0,4.0,57,0.00,,,0.00,weatherlink.com 1.10,2013-05-15 01:51:00,
2013-05-14 22:06:00,68.3,53.0,29.72,South,174,0.0,3.0,59,0.00,,,0.00,weatherlink.com 1.10,2013-05-15 02:06:00,
2013-05-14 22:21:00,69.5,56.0,29.72,South,174,0.0,2.0,62,0.00,,,0.00,weatherlink.com 1.10,2013-05-15 02:21:00,
2013-05-14 22:36:00,70.2,59.0,29.72,South,174,0.0,2.0,67,0.00,,,0.00,weatherlink.com 1.10,2013-05-15 02:36:00,
2013-05-14 22:51:00,71.4,61.0,29.73,WNW,285,0.0,5.0,70,0.00,,,0.00,weatherlink.com 1.10,2013-05-15 02:51:00,
2013-05-14 23:06:00,73.2,62.0,29.73,SSW,211,0.0,7.0,68,0.00,,,0.00,weatherlink.com 1.10,2013-05-15 03:06:00,
2013-05-14 23:21:00,73.6,62.0,29.73,SSW,196,4.0,6.0,67,0.00,,,0.00,weatherlink.com 1.10,2013-05-15 03:21:00,
2013-05-14 23:36:00,73.5,62.0,29.72,SW,236,1.0,7.0,68,0.00,,,0.00,weatherlink.com 1.10,2013-05-15 03:36:00,
2013-05-14 23:51:00,73.1,62.0,29.71,West,264,1.0,6.0,69,0.00,,,0.00,weatherlink.com 1.10,2013-05-15 03:51:00,